Time;durP1;ratioP1;P1;durP2;ratioP2;P2;SDS_P1;SDS_P2;PMS_P1;PMS_P2;Temp;Humidity;BMP_temperature;BMP_pressure;BME280_temperature;BME280_humidity;BME280_pressure;Samples;Min_cycle;Max_cycle;Signal;HPM_P1;HPM_P2
2021/01/08 00:01:13;;;;;;;4.35;1.20;;;22.60;69.80;;;;;;5072253;28;20029;-63
2021/01/08 00:03:41;;;;;;;3.63;1.13;;;22.60;69.90;;;;;;5072454;28;20016;-64
2021/01/08 00:06:09;;;;;;;3.03;0.93;;;22.50;69.90;;;;;;5072616;28;20054;-65
2021/01/08 00:08:36;;;;;;;2.55;1.23;;;22.50;70.00;;;;;;5072655;28;20199;-62
2021/01/08 00:11:06;;;;;;;4.30;1.52;;;22.50;70.00;;;;;;5072757;28;20108;-64
2021/01/08 00:13:33;;;;;;;4.10;1.30;;;22.50;70.10;;;;;;5072613;28;20020;-66
2021/01/08 00:16:01;;;;;;;3.22;1.00;;;22.50;70.10;;;;;;5072368;28;20032;-67
2021/01/08 00:18:28;;;;;;;4.40;1.30;;;22.50;70.20;;;;;;5072868;28;20104;-66
2021/01/08 00:20:56;;;;;;;4.25;1.42;;;22.50;70.80;;;;;;5071389;28;20060;-65
2021/01/08 00:23:23;;;;;;;2.78;0.85;;;22.50;70.10;;;;;;5072308;28;20028;-62
2021/01/08 00:25:52;;;;;;;2.55;1.10;;;22.50;70.10;;;;;;5072336;28;20048;-67
2021/01/08 00:28:19;;;;;;;3.10;1.38;;;22.50;70.10;;;;;;5072450;28;20050;-65
2021/01/08 00:30:47;;;;;;;3.65;1.17;;;22.50;70.10;;;;;;5070552;28;20128;-62
2021/01/08 00:33:14;;;;;;;2.42;1.15;;;22.50;70.10;;;;;;5071619;28;20054;-65
2021/01/08 00:35:42;;;;;;;4.88;1.17;;;22.50;70.20;;;;;;5072196;28;20379;-62
2021/01/08 00:38:13;;;;;;;2.92;1.17;;;22.50;70.20;;;;;;5072399;28;20467;-65
2021/01/08 00:40:40;;;;;;;4.15;0.95;;;22.50;70.30;;;;;;5072257;28;20036;-62
2021/01/08 00:43:08;;;;;;;3.40;1.02;;;22.50;70.30;;;;;;5072070;28;20035;-64
2021/01/08 00:45:35;;;;;;;2.25;1.17;;;22.50;70.30;;;;;;5071598;28;20024;-64
2021/01/08 00:48:03;;;;;;;1.95;1.20;;;22.50;70.30;;;;;;5071832;28;20522;-64
2021/01/08 00:50:30;;;;;;;2.67;1.17;;;22.50;70.40;;;;;;5072027;28;20094;-65
2021/01/08 00:52:58;;;;;;;2.03;1.00;;;22.50;70.30;;;;;;5072214;28;20028;-64
2021/01/08 00:55:25;;;;;;;3.22;1.08;;;22.50;70.20;;;;;;5071700;28;20108;-68
2021/01/08 00:57:52;;;;;;;4.68;1.33;;;22.50;70.20;;;;;;5071980;28;20029;-66
2021/01/08 01:00:20;;;;;;;3.42;1.17;;;22.60;70.00;;;;;;5071473;28;20020;-63
2021/01/08 01:02:47;;;;;;;3.35;1.20;;;22.60;69.90;;;;;;5071865;28;20020;-69
2021/01/08 01:05:15;;;;;;;4.88;1.42;;;22.60;70.00;;;;;;5071486;28;20424;-66
2021/01/08 01:07:42;;;;;;;2.97;1.23;;;22.60;69.60;;;;;;5071236;28;20035;-63
2021/01/08 01:10:10;;;;;;;2.45;1.02;;;22.70;69.80;;;;;;5071739;28;20028;-62
2021/01/08 01:12:38;;;;;;;2.90;1.00;;;22.70;69.60;;;;;;5071884;28;20029;-65
2021/01/08 01:15:07;;;;;;;4.10;1.10;;;22.70;69.40;;;;;;5071167;28;20031;-66
2021/01/08 01:17:41;;;;;;;3.35;0.90;;;22.70;69.40;;;;;;5071516;28;20101;-63
2021/01/08 01:20:09;;;;;;;3.20;1.10;;;22.70;69.10;;;;;;5071682;28;20040;-67
2021/01/08 01:22:36;;;;;;;4.70;1.48;;;22.70;69.70;;;;;;5054424;28;20025;-66
2021/01/08 01:25:07;;;;;;;4.15;1.50;;;22.80;69.00;;;;;;5071823;28;20036;-63
2021/01/08 01:27:38;;;;;;;3.13;1.00;;;22.80;68.70;;;;;;5067983;28;20155;-64
2021/01/08 01:30:08;;;;;;;3.72;1.27;;;22.80;69.00;;;;;;5071665;28;20044;-65
2021/01/08 01:32:36;;;;;;;3.67;1.20;;;22.80;68.60;;;;;;5071994;28;20123;-65
2021/01/08 01:35:04;;;;;;;2.10;0.75;;;22.80;68.90;;;;;;5071867;28;20483;-65
2021/01/08 01:37:31;;;;;;;2.75;0.82;;;22.90;68.80;;;;;;5071059;28;20028;-64
2021/01/08 01:39:59;;;;;;;3.83;1.35;;;22.80;68.80;;;;;;5071552;28;20494;-66
2021/01/08 01:42:26;;;;;;;6.35;1.58;;;22.90;68.90;;;;;;5071723;28;20028;-63
2021/01/08 01:44:54;;;;;;;2.70;1.10;;;22.90;68.80;;;;;;5070019;28;20032;-64
2021/01/08 01:47:21;;;;;;;3.17;1.20;;;22.80;68.60;;;;;;5071366;28;20024;-65
2021/01/08 01:49:49;;;;;;;2.85;1.23;;;22.90;68.70;;;;;;5071243;28;20486;-67
2021/01/08 01:52:16;;;;;;;8.05;1.67;;;22.90;68.80;;;;;;5072238;28;20028;-64
2021/01/08 01:54:44;;;;;;;6.30;1.30;;;22.90;68.30;;;;;;5075156;28;20029;-62
2021/01/08 01:57:12;;;;;;;5.75;1.50;;;22.90;68.60;;;;;;5073618;28;20484;-63
2021/01/08 01:59:39;;;;;;;3.25;1.52;;;22.90;68.20;;;;;;5074886;28;20115;-66
2021/01/08 02:02:19;;;;;;;3.03;1.13;;;22.90;68.00;;;;;;5074934;28;20024;-65
2021/01/08 02:04:47;;;;;;;4.90;1.50;;;23.00;68.60;;;;;;5073399;28;20035;-66
2021/01/08 02:07:16;;;;;;;5.82;1.50;;;23.00;68.50;;;;;;5073726;28;20111;-62
2021/01/08 02:09:45;;;;;;;5.68;1.60;;;23.00;67.40;;;;;;5074430;28;20113;-63
2021/01/08 02:12:13;;;;;;;5.45;1.30;;;23.00;68.00;;;;;;5074758;28;20025;-67
2021/01/08 02:14:44;;;;;;;3.75;1.45;;;23.10;67.80;;;;;;5074822;28;20431;-64
2021/01/08 02:17:15;;;;;;;3.97;1.30;;;23.10;68.00;;;;;;5074282;28;20108;-60
2021/01/08 02:20:06;;;;;;;5.95;1.85;;;23.10;67.20;;;;;;5074106;28;20055;-63
2021/01/08 02:23:03;;;;;;;4.95;1.60;;;23.10;67.70;;;;;;5074397;28;20029;-65
2021/01/08 02:25:32;;;;;;;4.32;1.30;;;23.20;67.10;;;;;;5065422;28;20086;-65
2021/01/08 02:28:20;;;;;;;4.85;1.48;;;23.20;66.90;;;;;;5074484;28;20078;-65
2021/01/08 02:30:49;;;;;;;4.78;1.25;;;23.20;66.90;;;;;;5073608;28;20039;-65
2021/01/08 02:33:18;;;;;;;5.07;1.50;;;23.20;66.60;;;;;;5074225;28;20017;-59
2021/01/08 02:35:51;;;;;;;4.18;1.67;;;23.30;66.40;;;;;;5074022;28;20039;-61
2021/01/08 02:38:21;;;;;;;3.97;1.77;;;23.30;67.00;;;;;;5074785;28;20020;-65
2021/01/08 02:40:50;;;;;;;6.82;1.90;;;23.30;65.80;;;;;;5074826;28;20021;-64
2021/01/08 02:43:23;;;;;;;6.10;1.85;;;23.30;66.30;;;;;;5074072;28;20158;-62
2021/01/08 02:45:52;;;;;;;2.50;0.98;;;23.40;66.00;;;;;;5064542;28;20035;-61
2021/01/08 02:48:20;;;;;;;3.35;1.25;;;23.40;65.40;;;;;;5071677;28;20094;-59
2021/01/08 02:50:48;;;;;;;4.38;1.30;;;23.40;66.40;;;;;;5072086;28;20158;-63
2021/01/08 02:53:17;;;;;;;5.40;1.45;;;23.40;66.00;;;;;;5069976;28;20429;-61
2021/01/08 02:56:15;;;;;;;5.20;1.52;;;23.50;66.00;;;;;;5072607;28;20036;-60
2021/01/08 02:58:44;;;;;;;8.45;1.30;;;23.50;66.20;;;;;;5070093;28;20048;-65
2021/01/08 03:01:13;;;;;;;2.90;1.10;;;23.50;66.20;;;;;;5072553;28;20029;-62
2021/01/08 03:03:41;;;;;;;3.05;1.13;;;23.50;66.20;;;;;;5067404;28;20101;-56
2021/01/08 03:06:09;;;;;;;6.25;1.55;;;23.50;66.40;;;;;;5071598;28;20040;-60
2021/01/08 03:08:37;;;;;;;2.95;1.00;;;23.50;66.40;;;;;;5072646;28;20028;-61
2021/01/08 03:11:12;;;;;;;3.38;1.13;;;23.60;66.50;;;;;;5072619;28;20035;-52
2021/01/08 03:13:40;;;;;;;3.05;1.33;;;23.60;66.50;;;;;;5067560;28;20383;-56
2021/01/08 03:16:08;;;;;;;5.75;1.20;;;23.50;66.60;;;;;;5070556;28;20056;-60
2021/01/08 03:18:35;;;;;;;4.88;1.50;;;23.60;66.60;;;;;;5072318;28;20375;-51
2021/01/08 03:21:03;;;;;;;4.03;1.48;;;23.50;66.30;;;;;;5072404;28;20048;-62
2021/01/08 03:23:30;;;;;;;3.00;1.05;;;23.60;66.10;;;;;;5067389;28;20052;-65
2021/01/08 03:25:57;;;;;;;4.30;1.48;;;23.60;66.50;;;;;;5071824;28;20386;-65
2021/01/08 03:28:25;;;;;;;3.88;1.38;;;23.60;66.50;;;;;;5071477;28;20039;-61
2021/01/08 03:30:52;;;;;;;4.72;1.25;;;23.60;66.70;;;;;;5069704;28;20111;-60
2021/01/08 03:33:20;;;;;;;8.82;1.30;;;23.60;66.60;;;;;;5067127;28;20436;-59
2021/01/08 03:35:47;;;;;;;5.40;1.90;;;23.60;66.50;;;;;;5071547;28;20420;-60
2021/01/08 03:38:15;;;;;;;5.68;1.73;;;23.60;66.30;;;;;;5071326;28;20117;-59
2021/01/08 03:40:42;;;;;;;4.18;1.60;;;23.60;66.40;;;;;;5071541;28;20025;-58
2021/01/08 03:43:11;;;;;;;5.60;1.80;;;23.60;66.70;;;;;;5068362;28;20020;-55
2021/01/08 03:45:39;;;;;;;4.70;1.48;;;23.60;66.50;;;;;;5069619;28;20017;-62
2021/01/08 03:48:07;;;;;;;2.78;1.50;;;23.60;66.60;;;;;;5071028;28;20108;-61
2021/01/08 03:50:34;;;;;;;6.95;1.65;;;23.60;66.60;;;;;;5071633;28;20138;-59
2021/01/08 03:53:01;;;;;;;2.13;1.05;;;23.60;66.30;;;;;;5072361;28;20464;-59
2021/01/08 03:55:29;;;;;;;6.22;1.90;;;23.60;66.40;;;;;;5072369;28;20051;-64
2021/01/08 03:57:56;;;;;;;3.95;1.27;;;23.60;66.60;;;;;;5072465;28;20434;-63
2021/01/08 04:00:24;;;;;;;5.60;1.40;;;23.70;66.40;;;;;;5072592;28;20498;-63
2021/01/08 04:02:51;;;;;;;3.70;1.30;;;23.60;66.40;;;;;;5072963;28;20050;-64
2021/01/08 04:05:18;;;;;;;4.75;1.20;;;23.70;66.40;;;;;;5072501;28;20033;-63
2021/01/08 04:07:46;;;;;;;7.65;1.85;;;23.60;66.10;;;;;;5071993;28;20024;-60
2021/01/08 04:10:13;;;;;;;4.10;1.85;;;23.60;65.80;;;;;;5071239;28;20116;-63
2021/01/08 04:12:40;;;;;;;5.70;1.48;;;23.60;66.10;;;;;;5072164;28;20047;-63
2021/01/08 04:15:08;;;;;;;5.30;1.85;;;23.60;66.00;;;;;;5072008;28;20029;-63
2021/01/08 04:17:35;;;;;;;4.22;1.77;;;23.60;66.20;;;;;;5071628;28;20455;-59
2021/01/08 04:20:03;;;;;;;5.53;1.33;;;23.60;66.20;;;;;;5071909;28;20040;-61
2021/01/08 04:22:30;;;;;;;4.13;1.40;;;23.60;65.60;;;;;;5072501;28;20031;-66
2021/01/08 04:24:58;;;;;;;5.47;1.15;;;23.60;66.20;;;;;;5072445;28;20020;-59
2021/01/08 04:27:25;;;;;;;4.43;1.30;;;23.60;66.10;;;;;;5072104;28;20032;-61
2021/01/08 04:29:52;;;;;;;4.63;1.52;;;23.60;66.10;;;;;;5071822;28;20032;-61
2021/01/08 04:32:20;;;;;;;7.88;1.85;;;23.60;65.90;;;;;;5071841;28;20440;-61
2021/01/08 04:34:47;;;;;;;4.97;1.65;;;23.60;66.20;;;;;;5071480;28;20071;-64
2021/01/08 04:37:14;;;;;;;4.63;1.60;;;23.60;66.90;;;;;;5071253;28;20396;-60
2021/01/08 04:39:42;;;;;;;3.88;1.38;;;23.60;66.30;;;;;;5071743;28;20028;-59
2021/01/08 04:42:09;;;;;;;2.22;1.05;;;23.60;66.20;;;;;;5072093;28;20048;-60
2021/01/08 04:44:37;;;;;;;7.28;1.27;;;23.70;66.20;;;;;;5071478;28;20028;-56
2021/01/08 04:47:04;;;;;;;5.55;1.60;;;23.60;65.80;;;;;;5070439;28;20020;-58
2021/01/08 04:49:33;;;;;;;5.55;1.52;;;23.70;65.80;;;;;;5071585;28;20422;-59
2021/01/08 04:52:02;;;;;;;4.60;1.30;;;23.70;66.00;;;;;;5071909;28;20025;-55
2021/01/08 04:54:29;;;;;;;5.03;1.33;;;23.70;65.70;;;;;;5071542;28;20066;-56
2021/01/08 04:56:57;;;;;;;2.33;1.15;;;23.70;65.70;;;;;;5071755;28;20029;-58
2021/01/08 04:59:25;;;;;;;4.90;1.40;;;23.70;66.00;;;;;;5071274;28;20032;-54
2021/01/08 05:01:53;;;;;;;4.55;1.77;;;23.70;65.70;;;;;;5070491;28;20028;-57
2021/01/08 05:04:24;;;;;;;5.35;1.42;;;23.80;65.40;;;;;;5071748;28;20099;-62
2021/01/08 05:06:51;;;;;;;4.93;1.58;;;23.80;65.40;;;;;;5071234;28;20021;-62
2021/01/08 05:09:19;;;;;;;3.67;1.27;;;23.70;65.40;;;;;;5069737;28;20375;-58
2021/01/08 05:11:47;;;;;;;4.57;1.48;;;23.80;65.80;;;;;;5068165;28;20028;-62
2021/01/08 05:14:17;;;;;;;3.35;1.33;;;23.80;65.90;;;;;;5069256;28;20028;-54
2021/01/08 05:16:44;;;;;;;5.18;1.35;;;23.80;65.80;;;;;;5069553;28;20033;-58
2021/01/08 05:19:14;;;;;;;3.20;1.08;;;23.80;66.10;;;;;;5060321;28;20028;-60
2021/01/08 05:21:42;;;;;;;2.45;1.10;;;23.90;65.60;;;;;;5061313;28;20151;-61
2021/01/08 05:24:12;;;;;;;4.97;1.45;;;23.90;65.60;;;;;;5069747;28;20036;-64
2021/01/08 05:26:40;;;;;;;6.72;1.40;;;23.90;65.40;;;;;;5068547;28;20021;-66
2021/01/08 05:29:07;;;;;;;3.15;1.23;;;23.90;65.80;;;;;;5073074;28;20158;-61
2021/01/08 05:31:35;;;;;;;4.70;1.40;;;24.00;65.20;;;;;;5070611;28;20129;-66
2021/01/08 05:34:03;;;;;;;6.95;1.52;;;24.00;65.00;;;;;;5073767;28;20029;-57
2021/01/08 05:36:34;;;;;;;3.38;1.27;;;24.00;65.40;;;;;;5074419;28;20501;-63
2021/01/08 05:39:02;;;;;;;5.38;1.60;;;24.00;65.30;;;;;;5070089;28;20046;-63
2021/01/08 05:41:31;;;;;;;2.03;1.20;;;24.00;65.30;;;;;;5067192;28;20029;-63
2021/01/08 05:44:01;;;;;;;1.58;0.80;;;24.10;64.50;;;;;;5072703;28;20131;-63
2021/01/08 05:46:31;;;;;;;2.92;1.20;;;24.10;65.20;;;;;;5074258;28;20417;-60
2021/01/08 05:49:00;;;;;;;3.17;1.20;;;24.10;65.00;;;;;;5069145;28;20020;-57
2021/01/08 05:51:33;;;;;;;4.28;1.00;;;24.10;64.70;;;;;;5066655;28;20454;-55
2021/01/08 05:54:01;;;;;;;5.07;1.30;;;24.10;64.90;;;;;;5073074;28;20104;-60
2021/01/08 05:56:34;;;;;;;6.20;1.15;;;24.20;64.60;;;;;;5074201;28;20047;-62
2021/01/08 05:59:05;;;;;;;2.95;1.05;;;24.20;64.90;;;;;;5073720;28;20032;-61
2021/01/08 06:01:33;;;;;;;5.40;1.48;;;24.20;64.00;;;;;;5066705;28;20029;-65
2021/01/08 06:04:04;;;;;;;3.17;1.08;;;24.20;64.70;;;;;;5073481;28;20024;-60
2021/01/08 06:06:45;;;;;;;3.20;1.20;;;24.20;64.80;;;;;;5072847;28;20028;-64
2021/01/08 06:09:14;;;;;;;2.80;0.93;;;24.30;64.70;;;;;;5102475;28;20033;-61
2021/01/08 06:11:45;;;;;;;5.82;1.58;;;24.30;64.80;;;;;;5068709;28;20761;-63
2021/01/08 06:14:15;;;;;;;2.60;1.00;;;24.30;64.70;;;;;;5073660;28;20027;-62
2021/01/08 06:16:49;;;;;;;4.30;1.25;;;24.30;64.80;;;;;;5073214;28;20021;-60
2021/01/08 06:19:17;;;;;;;2.55;0.90;;;24.30;65.00;;;;;;5072057;28;20535;-63
2021/01/08 06:21:46;;;;;;;2.47;0.95;;;24.30;65.00;;;;;;5067323;28;20052;-61
2021/01/08 06:24:26;;;;;;;3.92;1.23;;;24.30;64.70;;;;;;5072046;28;20029;-62
2021/01/08 06:26:54;;;;;;;3.85;1.27;;;24.30;65.20;;;;;;5071745;28;20214;-63
2021/01/08 06:29:29;;;;;;;3.38;1.27;;;24.30;65.10;;;;;;5071403;28;20103;-62
2021/01/08 06:32:13;;;;;;;5.00;1.15;;;24.30;65.30;;;;;;5066183;28;20047;-63
2021/01/08 06:34:47;;;;;;;4.03;1.50;;;24.20;65.10;;;;;;5068934;28;20039;-61
2021/01/08 06:37:18;;;;;;;3.45;0.95;;;24.20;65.30;;;;;;5071103;28;20024;-65
2021/01/08 06:39:47;;;;;;;4.95;0.95;;;24.20;65.70;;;;;;5070222;28;20032;-61
2021/01/08 06:42:32;;;;;;;2.78;1.17;;;24.20;65.50;;;;;;5066453;28;20115;-62
2021/01/08 06:45:00;;;;;;;3.17;1.13;;;24.20;65.50;;;;;;5071529;28;20468;-61
2021/01/08 06:47:32;;;;;;;4.05;1.20;;;24.20;65.50;;;;;;5071087;28;20102;-67
2021/01/08 06:50:02;;;;;;;;;;;24.20;65.90;;;;;;5070535;28;20081;-63
2021/01/08 06:52:37;;;;;;;2.78;0.70;;;24.10;65.80;;;;;;5065158;28;19964;-65
2021/01/08 06:55:07;;;;;;;2.25;0.90;;;24.20;66.30;;;;;;5068229;28;20451;-64
2021/01/08 06:57:36;;;;;;;2.63;1.15;;;24.10;66.10;;;;;;5067206;28;20047;-64
2021/01/08 07:00:06;;;;;;;6.35;1.17;;;24.10;66.00;;;;;;5070906;28;20455;-64
2021/01/08 07:02:37;;;;;;;2.90;1.02;;;24.10;66.20;;;;;;5066804;28;20032;-62
2021/01/08 07:05:05;;;;;;;6.47;1.13;;;24.00;66.20;;;;;;5071719;28;20028;-63
2021/01/08 07:07:33;;;;;;;3.72;1.35;;;24.00;66.30;;;;;;5071155;28;20035;-64
2021/01/08 07:10:03;;;;;;;4.15;1.27;;;24.10;66.60;;;;;;5071015;28;20093;-63
2021/01/08 07:12:30;;;;;;;3.22;1.17;;;24.10;66.70;;;;;;5067057;28;20043;-65
2021/01/08 07:14:58;;;;;;;2.92;1.33;;;24.00;66.60;;;;;;5071173;28;20078;-65
2021/01/08 07:17:31;;;;;;;3.65;1.05;;;24.00;66.60;;;;;;5070829;28;20060;-67
2021/01/08 07:20:01;;;;;;;3.30;0.93;;;24.00;66.70;;;;;;4999772;28;2031910;-65
2021/01/08 07:22:39;;;;;;;4.88;1.10;;;24.00;66.60;;;;;;5067719;28;20032;-65
2021/01/08 07:25:12;;;;;;;2.35;1.25;;;23.90;67.00;;;;;;5072580;28;20071;-66
2021/01/08 07:27:44;;;;;;;3.15;1.25;;;23.90;67.10;;;;;;5071913;28;20027;-66
2021/01/08 07:30:13;;;;;;;8.77;1.45;;;23.90;67.20;;;;;;5071058;28;20127;-64
2021/01/08 07:32:58;;;;;;;2.67;1.10;;;23.90;66.90;;;;;;5067874;28;20356;-61
2021/01/08 07:35:34;;;;;;;2.85;1.05;;;23.90;67.30;;;;;;5071739;28;20017;-63
2021/01/08 07:38:15;;;;;;;5.43;1.45;;;23.90;67.30;;;;;;5071941;28;20083;-65
2021/01/08 07:40:51;;;;;;;3.67;1.25;;;23.90;67.30;;;;;;5070751;28;20051;-65
2021/01/08 07:43:19;;;;;;;3.20;1.05;;;23.90;67.50;;;;;;5066629;28;20025;-67
2021/01/08 07:45:49;;;;;;;4.18;1.10;;;23.90;67.70;;;;;;5071974;28;20024;-62
2021/01/08 07:48:28;;;;;;;2.08;0.90;;;23.90;67.80;;;;;;5071307;28;20024;-57
2021/01/08 07:50:59;;;;;;;2.53;1.00;;;23.80;67.70;;;;;;5067146;28;20028;-63
2021/01/08 07:53:47;;;;;;;2.13;0.88;;;23.80;67.90;;;;;;5064058;28;20354;-62
2021/01/08 07:56:22;;;;;;;5.10;1.58;;;23.80;68.10;;;;;;5071987;28;20036;-67
2021/01/08 07:59:03;;;;;;;4.93;1.52;;;23.80;68.10;;;;;;5071767;28;20078;-67
2021/01/08 08:01:31;;;;;;;2.63;1.02;;;23.80;68.00;;;;;;5067603;28;20028;-61
2021/01/08 08:04:04;;;;;;;2.85;1.50;;;23.70;67.80;;;;;;5070429;28;20028;-62
2021/01/08 08:06:35;;;;;;;2.42;0.75;;;23.70;68.10;;;;;;5071301;28;20028;-66
2021/01/08 08:09:05;;;;;;;3.90;1.27;;;23.70;67.60;;;;;;5071194;28;20025;-64
2021/01/08 08:11:35;;;;;;;5.38;1.10;;;23.70;67.90;;;;;;5066537;28;20126;-61
2021/01/08 08:14:40;;;;;;;3.08;1.20;;;23.70;67.90;;;;;;5071039;28;20052;-61
2021/01/08 08:17:08;;;;;;;3.65;1.10;;;23.70;68.00;;;;;;5069567;28;20115;-64
2021/01/08 08:19:35;;;;;;;3.88;1.02;;;23.70;68.10;;;;;;5070133;28;20062;-65
2021/01/08 08:22:03;;;;;;;3.97;1.20;;;23.70;68.40;;;;;;5065896;28;20094;-53
2021/01/08 08:24:31;;;;;;;3.22;1.02;;;23.70;68.40;;;;;;5071364;28;20028;-56
2021/01/08 08:26:58;;;;;;;3.78;1.27;;;23.70;68.40;;;;;;5067413;28;20443;-54
2021/01/08 08:29:26;;;;;;;5.22;1.67;;;23.70;68.40;;;;;;5067408;28;20040;-66
2021/01/08 08:31:54;;;;;;;5.82;1.25;;;23.60;66.50;;;;;;5065617;28;20040;-62
2021/01/08 08:34:33;;;;;;;2.53;1.10;;;23.60;67.80;;;;;;5070086;28;20471;-60
2021/01/08 08:37:11;;;;;;;4.93;1.42;;;23.60;68.10;;;;;;5065875;28;20391;-64
2021/01/08 08:39:38;;;;;;;5.85;1.30;;;23.60;68.00;;;;;;5068949;28;20036;-64
2021/01/08 08:42:07;;;;;;;5.53;1.58;;;23.60;68.10;;;;;;5066145;28;20123;-61
2021/01/08 08:44:44;;;;;;;4.15;1.05;;;23.60;68.30;;;;;;5066821;28;20107;-62
2021/01/08 08:47:12;;;;;;;3.65;1.10;;;23.60;68.40;;;;;;5065175;28;20026;-65
2021/01/08 08:49:40;;;;;;;6.78;1.10;;;23.60;68.30;;;;;;5064670;28;20139;-63
2021/01/08 08:52:09;;;;;;;3.42;1.10;;;23.50;68.30;;;;;;5065095;28;20024;-62
2021/01/08 08:54:39;;;;;;;5.35;1.38;;;23.50;68.30;;;;;;5067741;28;20056;-63
2021/01/08 08:57:10;;;;;;;4.72;1.50;;;23.50;68.10;;;;;;5067829;28;20082;-61
2021/01/08 08:59:42;;;;;;;3.55;1.08;;;23.50;68.20;;;;;;5069004;28;20433;-65
2021/01/08 09:02:28;;;;;;;5.78;1.27;;;23.40;68.30;;;;;;5061621;28;20024;-62
2021/01/08 09:05:00;;;;;;;3.38;1.20;;;23.40;68.90;;;;;;5064520;28;20035;-65
2021/01/08 09:07:56;;;;;;;7.43;1.40;;;23.40;70.10;;;;;;5065933;28;20036;-63
2021/01/08 09:10:37;;;;;;;6.13;1.77;;;23.40;70.10;;;;;;5064685;28;20196;-64
2021/01/08 09:13:16;;;;;;;9.57;2.58;;;23.50;70.10;;;;;;5061592;28;20032;-59
2021/01/08 09:15:52;;;;;;;5.70;2.22;;;23.50;70.10;;;;;;5065609;28;20025;-63
2021/01/08 09:18:29;;;;;;;8.68;3.50;;;23.50;70.00;;;;;;5066504;28;20029;-65
2021/01/08 09:21:14;;;;;;;15.68;3.70;;;23.40;70.00;;;;;;5069182;28;20056;-65
2021/01/08 09:23:45;;;;;;;11.02;3.05;;;23.50;70.10;;;;;;5065562;28;20020;-65
2021/01/08 09:26:17;;;;;;;13.32;3.90;;;23.50;70.00;;;;;;5070582;28;20020;-63
2021/01/08 09:28:49;;;;;;;10.98;3.38;;;23.50;70.00;;;;;;5070854;28;20044;-67
2021/01/08 09:31:17;;;;;;;12.30;3.70;;;23.50;70.00;;;;;;5069320;28;20036;-64
2021/01/08 09:33:58;;;;;;;12.98;4.07;;;23.50;70.10;;;;;;5064684;28;20064;-63
2021/01/08 09:36:37;;;;;;;11.48;3.33;;;23.40;69.10;;;;;;5066641;28;20039;-63
2021/01/08 09:39:09;;;;;;;12.10;4.20;;;23.40;69.60;;;;;;5068492;28;20033;-63
2021/01/08 09:41:41;;;;;;;14.77;3.75;;;23.40;69.90;;;;;;5061458;28;20697;-66
2021/01/08 09:44:09;;;;;;;;;;;23.40;70.10;;;;;;5049412;28;20553;-64
2021/01/08 09:46:59;;;;;;;13.25;3.70;;;23.40;70.10;;;;;;5068832;28;19908;-63
2021/01/08 09:49:51;;;;;;;14.73;3.42;;;23.40;70.00;;;;;;5063948;28;20024;-64
2021/01/08 09:52:27;;;;;;;11.05;3.17;;;23.40;70.40;;;;;;5063761;28;20025;-60
2021/01/08 09:54:55;;;;;;;13.27;3.78;;;23.40;70.30;;;;;;5070674;28;20040;-67
2021/01/08 09:57:35;;;;;;;10.45;3.58;;;23.30;70.30;;;;;;5070499;28;20021;-62
2021/01/08 10:00:11;;;;;;;10.48;3.55;;;23.30;70.20;;;;;;5066166;28;20519;-57
2021/01/08 10:02:42;;;;;;;18.52;3.83;;;23.30;70.20;;;;;;5065003;28;20032;-63
2021/01/08 10:05:31;;;;;;;8.50;3.33;;;23.30;70.20;;;;;;5070068;28;20066;-57
2021/01/08 10:08:00;;;;;;;8.25;2.95;;;23.30;70.30;;;;;;5070173;28;20024;-65
2021/01/08 10:10:28;;;;;;;9.90;3.58;;;23.30;70.30;;;;;;5069467;28;20044;-63
2021/01/08 10:12:56;;;;;;;8.82;2.65;;;23.30;70.20;;;;;;5064887;28;20024;-63
2021/01/08 10:15:39;;;;;;;10.13;3.90;;;23.30;70.20;;;;;;5074013;28;20032;-63
2021/01/08 10:18:14;;;;;;;10.60;3.45;;;23.30;70.20;;;;;;5073925;28;20024;-66
2021/01/08 10:20:56;;;;;;;9.38;3.03;;;23.30;70.20;;;;;;5069625;28;20036;-68
2021/01/08 10:23:25;;;;;;;9.23;2.80;;;23.30;70.30;;;;;;5066440;28;20036;-65
2021/01/08 10:26:11;;;;;;;8.77;2.85;;;23.30;70.20;;;;;;5074154;28;20021;-60
2021/01/08 10:28:57;;;;;;;11.55;3.30;;;23.30;70.10;;;;;;5073632;28;20067;-60
2021/01/08 10:31:25;;;;;;;10.60;3.50;;;23.30;70.20;;;;;;5070625;28;20024;-64
2021/01/08 10:33:53;;;;;;;8.27;2.95;;;23.20;70.00;;;;;;5070987;28;20032;-62
2021/01/08 10:36:20;;;;;;;11.05;3.30;;;23.20;70.20;;;;;;5073869;28;20028;-66
2021/01/08 10:38:47;;;;;;;12.10;3.67;;;23.20;70.10;;;;;;5073708;28;20494;-62
2021/01/08 10:41:19;;;;;;;10.85;3.17;;;23.20;70.00;;;;;;5068396;28;20451;-56
2021/01/08 10:43:50;;;;;;;8.18;3.42;;;23.20;70.10;;;;;;5069657;28;20501;-63
2021/01/08 10:46:21;;;;;;;9.20;3.20;;;23.20;70.00;;;;;;5069562;28;20016;-62
2021/01/08 10:48:50;;;;;;;8.32;3.05;;;23.20;70.10;;;;;;5069566;28;20029;-56
2021/01/08 10:51:17;;;;;;;9.82;3.42;;;23.30;70.00;;;;;;5072765;28;20037;-63
2021/01/08 10:53:44;;;;;;;9.80;3.55;;;23.20;69.90;;;;;;5067483;28;20074;-64
2021/01/08 10:56:12;;;;;;;9.95;3.17;;;23.20;69.80;;;;;;5073085;28;20059;-61
2021/01/08 10:58:41;;;;;;;9.68;3.25;;;23.20;70.10;;;;;;5073273;28;20488;-68
2021/01/08 11:01:08;;;;;;;8.65;2.80;;;23.20;69.70;;;;;;5072450;28;20033;-59
2021/01/08 11:03:35;;;;;;;7.65;2.38;;;23.20;69.90;;;;;;5067517;28;20021;-59
2021/01/08 11:06:03;;;;;;;7.90;3.20;;;23.20;69.90;;;;;;5073349;28;20024;-54
2021/01/08 11:08:30;;;;;;;8.35;3.20;;;23.20;69.90;;;;;;5071819;28;20029;-61
2021/01/08 11:10:58;;;;;;;11.38;3.45;;;23.20;70.00;;;;;;5071036;28;20039;-61
2021/01/08 11:13:25;;;;;;;8.57;2.70;;;23.20;69.70;;;;;;5067493;28;20013;-64
2021/01/08 11:15:53;;;;;;;6.93;2.72;;;23.10;69.80;;;;;;5072925;28;20120;-62
2021/01/08 11:18:21;;;;;;;6.45;2.78;;;23.10;69.90;;;;;;5073469;28;20044;-68
2021/01/08 11:20:48;;;;;;;7.18;2.28;;;23.10;69.90;;;;;;5073124;28;20055;-69
2021/01/08 11:23:16;;;;;;;7.03;2.45;;;23.10;69.70;;;;;;5067601;28;20091;-62
2021/01/08 11:25:43;;;;;;;12.68;3.40;;;23.10;69.80;;;;;;5071151;28;20040;-62
2021/01/08 11:28:11;;;;;;;7.53;2.80;;;23.10;69.70;;;;;;5072759;28;20112;-58
2021/01/08 11:30:39;;;;;;;8.50;2.80;;;23.10;69.70;;;;;;5072115;28;20109;-64
2021/01/08 11:33:07;;;;;;;6.93;2.80;;;23.10;69.60;;;;;;5067063;28;20511;-57
2021/01/08 11:35:35;;;;;;;4.55;2.05;;;23.10;69.70;;;;;;5071578;28;20033;-60
2021/01/08 11:38:02;;;;;;;8.98;2.60;;;23.10;69.50;;;;;;5072182;28;20038;-56
2021/01/08 11:40:30;;;;;;;5.97;2.28;;;23.10;69.60;;;;;;5067576;28;20028;-54
2021/01/08 11:42:57;;;;;;;7.75;3.13;;;23.10;69.60;;;;;;5066910;28;20032;-51
2021/01/08 11:45:24;;;;;;;7.80;2.28;;;23.10;69.60;;;;;;5071647;28;20032;-61
2021/01/08 11:47:52;;;;;;;7.30;2.55;;;23.10;69.60;;;;;;5072099;28;20100;-55
2021/01/08 11:50:19;;;;;;;6.07;2.53;;;23.10;69.50;;;;;;5071356;28;20032;-64
2021/01/08 11:52:46;;;;;;;7.50;2.75;;;23.00;69.40;;;;;;5067245;28;20048;-57
2021/01/08 11:55:14;;;;;;;6.97;2.53;;;23.00;69.40;;;;;;5071876;28;20055;-56
2021/01/08 11:57:41;;;;;;;6.60;2.35;;;23.00;69.40;;;;;;5071776;28;20631;-55
2021/01/08 12:00:09;;;;;;;6.82;2.47;;;23.00;69.20;;;;;;5071662;28;20028;-62
2021/01/08 12:02:37;;;;;;;7.45;2.70;;;23.00;69.30;;;;;;5062463;28;20107;-58
2021/01/08 12:05:05;;;;;;;10.15;2.53;;;23.00;69.20;;;;;;5071770;28;20036;-56
2021/01/08 12:07:35;;;;;;;7.60;2.30;;;23.00;69.00;;;;;;5071136;28;20051;-62
2021/01/08 12:10:02;;;;;;;6.10;2.65;;;23.00;69.00;;;;;;5071818;28;20136;-54
2021/01/08 12:12:34;;;;;;;5.78;2.22;;;23.00;68.80;;;;;;5065125;28;20058;-55
2021/01/08 12:15:02;;;;;;;6.65;2.63;;;22.90;69.00;;;;;;5071696;28;20389;-54
2021/01/08 12:17:29;;;;;;;7.22;2.70;;;23.00;68.90;;;;;;5068739;28;20115;-56
2021/01/08 12:19:57;;;;;;;4.80;2.40;;;22.90;69.00;;;;;;5072746;28;20052;-56
2021/01/08 12:22:24;;;;;;;4.68;1.90;;;22.90;69.10;;;;;;5072860;28;20020;-63
2021/01/08 12:24:52;;;;;;;6.25;1.92;;;22.90;69.10;;;;;;5072252;28;20073;-58
2021/01/08 12:27:19;;;;;;;5.35;2.30;;;22.90;69.00;;;;;;5072122;28;20020;-63
2021/01/08 12:29:46;;;;;;;6.68;2.15;;;22.90;69.10;;;;;;5072252;28;20065;-58
2021/01/08 12:32:14;;;;;;;6.80;1.92;;;22.80;69.00;;;;;;5072024;28;20028;-58
2021/01/08 12:34:41;;;;;;;5.03;1.92;;;22.80;69.00;;;;;;5072440;28;20131;-65
2021/01/08 12:37:09;;;;;;;7.00;2.60;;;22.80;69.00;;;;;;5071914;28;20028;-61
2021/01/08 12:39:36;;;;;;;8.23;2.33;;;22.70;68.90;;;;;;5071979;28;20032;-61
2021/01/08 12:42:05;;;;;;;5.30;1.95;;;22.70;68.90;;;;;;5072035;28;20056;-58
2021/01/08 12:44:32;;;;;;;7.63;2.30;;;22.70;69.00;;;;;;5071398;28;20359;-60
2021/01/08 12:47:03;;;;;;;5.95;1.98;;;22.70;69.00;;;;;;5071860;28;20024;-59
2021/01/08 12:49:31;;;;;;;7.78;2.30;;;22.70;69.10;;;;;;5072058;28;20036;-63
2021/01/08 12:51:58;;;;;;;8.50;2.28;;;22.70;69.80;;;;;;5072331;28;20056;-61
2021/01/08 12:54:25;;;;;;;5.05;2.00;;;22.60;69.10;;;;;;5072470;28;20025;-60
2021/01/08 12:56:54;;;;;;;7.38;2.30;;;22.60;69.10;;;;;;5071782;28;20023;-66
2021/01/08 12:59:22;;;;;;;4.90;2.20;;;22.60;69.10;;;;;;5072374;28;20028;-63
2021/01/08 13:01:56;;;;;;;7.18;2.55;;;22.60;69.20;;;;;;5071783;28;20020;-65